Time;durP1;ratioP1;P1;durP2;ratioP2;P2;SDS_P1;SDS_P2;PMS_P1;PMS_P2;Temp;Humidity;BMP_temperature;BMP_pressure;BME280_temperature;BME280_humidity;BME280_pressure;Samples;Min_cycle;Max_cycle;Signal;HPM_P1;HPM_P2
2023/03/10 00:02:15;;;;;;;;;10.00;2.00;;;;;13.09;72.75;98357.25;5052740;28;45636;-76
2023/03/10 00:04:40;;;;;;;;;4.00;2.25;;;;;13.02;72.64;98359.78;5055612;28;45523;-74
2023/03/10 00:07:05;;;;;;;;;3.25;1.00;;;;;13.05;72.79;98345.47;5055978;28;49411;-73
2023/03/10 00:09:31;;;;;;;;;4.00;2.50;;;;;13.05;72.61;98342.84;5056172;28;45647;-74
2023/03/10 00:11:56;;;;;;;;;4.75;2.00;;;;;13.01;72.05;98344.19;5056325;28;45723;-74
2023/03/10 00:14:21;;;;;;;;;8.75;2.00;;;;;12.98;71.67;98350.63;5056196;28;46343;-74
2023/03/10 00:16:46;;;;;;;;;5.75;2.00;;;;;12.99;71.80;98359.34;5056059;28;45595;-75
2023/03/10 00:19:12;;;;;;;;;3.25;2.00;;;;;13.00;72.30;98353.91;5056057;28;45624;-74
2023/03/10 00:21:37;;;;;;;;;5.00;2.00;;;;;13.01;71.61;98349.44;5056065;28;45690;-73
2023/03/10 00:27:25;;;;;;;;;4.25;2.50;;;;;13.00;71.49;98347.84;5055857;28;45632;-75
2023/03/10 00:29:50;;;;;;;;;6.25;2.75;;;;;13.03;71.54;98340.41;5055662;28;45500;-75
2023/03/10 00:32:16;;;;;;;;;3.00;3.00;;;;;13.06;71.56;98343.66;5055191;28;45522;-75
2023/03/10 00:34:41;;;;;;;;;5.50;1.75;;;;;13.05;71.56;98327.09;5055398;28;46609;-74
2023/03/10 00:37:06;;;;;;;;;3.00;2.00;;;;;13.06;71.41;98328.72;5055519;28;47281;-73
2023/03/10 00:42:53;;;;;;;;;2.00;1.00;;;;;13.11;71.27;98320.28;5054962;28;45555;-73
2023/03/10 00:45:18;;;;;;;;;6.50;2.75;;;;;13.12;70.76;98311.44;5055089;28;46391;-74
2023/03/10 00:47:44;;;;;;;;;2.50;2.00;;;;;13.13;71.12;98318.31;5055336;28;46029;-74
2023/03/10 00:50:10;;;;;;;;;7.00;2.00;;;;;13.11;71.00;98304.50;5054951;28;45646;-74
2023/03/10 00:52:35;;;;;;;;;2.75;1.00;;;;;13.04;71.08;98310.50;5055530;28;45744;-73
2023/03/10 00:58:22;;;;;;;;;4.00;1.00;;;;;13.03;70.85;98334.31;5062861;27;45991;-73
2023/03/10 01:00:48;;;;;;;;;2.00;1.25;;;;;12.95;70.42;98329.16;5054734;28;45839;-74
2023/03/10 01:03:13;;;;;;;;;2.50;1.50;;;;;12.89;70.67;98322.81;5055111;28;45615;-75
2023/03/10 01:05:38;;;;;;;;;1.25;1.00;;;;;12.81;71.09;98325.50;5055389;28;45609;-74
2023/03/10 01:08:04;;;;;;;;;3.25;1.00;;;;;12.82;71.21;98335.03;5055092;28;46084;-74
2023/03/10 01:10:29;;;;;;;;;4.50;3.25;;;;;12.75;71.56;98331.47;5054946;28;45520;-74
2023/03/10 01:12:55;;;;;;;;;4.00;1.00;;;;;12.72;71.25;98320.50;5055197;28;45548;-73
2023/03/10 01:15:20;;;;;;;;;1.00;0.00;;;;;12.67;71.59;98310.53;5054643;28;46677;-73
2023/03/10 01:17:45;;;;;;;;;2.25;0.00;;;;;12.58;71.01;98296.66;5054694;28;47299;-74
2023/03/10 01:20:13;;;;;;;;;1.00;1.00;;;;;12.49;71.03;98278.53;5054604;28;45599;-74
2023/03/10 01:22:40;;;;;;;;;1.00;1.00;;;;;12.46;71.12;98286.78;5054749;28;45547;-75
2023/03/10 01:28:26;;;;;;;;;1.00;0.00;;;;;12.28;71.27;98297.59;5054710;28;46116;-73
2023/03/10 01:30:52;;;;;;;;;0.25;0.25;;;;;12.19;71.17;98296.03;5054923;28;45746;-74
2023/03/10 01:33:17;;;;;;;;;0.75;0.00;;;;;12.13;71.36;98289.69;5054633;28;45575;-74
2023/03/10 01:35:43;;;;;;;;;1.00;0.50;;;;;12.03;71.32;98283.03;5054913;28;45686;-75
2023/03/10 01:38:11;;;;;;;;;2.25;1.25;;;;;12.08;71.32;98299.88;5054818;28;45758;-74
2023/03/10 01:43:58;;;;;;;;;1.25;0.00;;;;;12.02;70.52;98294.50;5054528;28;45731;-74
2023/03/10 01:46:35;;;;;;;;;1.00;0.75;;;;;12.01;70.82;98282.38;5053190;28;47884;-73
2023/03/10 01:49:31;;;;;;;;;1.50;0.00;;;;;11.94;70.40;98268.31;5054190;28;46097;-73
2023/03/10 01:52:20;;;;;;;;;1.75;0.00;;;;;11.96;70.16;98282.09;5053876;28;45723;-74
2023/03/10 01:54:52;;;;;;;;;1.00;1.00;;;;;11.96;70.09;98282.91;5053256;28;45583;-74
2023/03/10 01:57:21;;;;;;;;;1.00;0.00;;;;;11.95;70.04;98265.53;5036242;28;46592;-74
2023/03/10 01:59:48;;;;;;;;;0.25;0.00;;;;;11.92;70.14;98268.50;5054165;28;46207;-75
2023/03/10 02:02:14;;;;;;;;;1.25;1.00;;;;;11.97;69.78;98266.19;5054506;28;45755;-75
2023/03/10 02:04:47;;;;;;;;;0.00;0.00;;;;;11.94;69.75;98252.56;5036797;28;45597;-73
2023/03/10 02:07:15;;;;;;;;;4.00;1.00;;;;;11.98;69.81;98259.94;5055750;28;46526;-75
2023/03/10 02:09:44;;;;;;;;;4.00;1.00;;;;;11.98;69.69;98246.00;5056478;28;46397;-74
2023/03/10 02:12:11;;;;;;;;;1.00;1.00;;;;;11.98;69.77;98238.94;5059830;28;45530;-75
2023/03/10 02:14:38;;;;;;;;;1.00;1.00;;;;;12.00;69.54;98249.25;5055388;28;45993;-74
2023/03/10 02:17:07;;;;;;;;;3.00;0.00;;;;;11.97;69.34;98239.13;5055302;28;47272;-74
2023/03/10 02:19:41;;;;;;;;;1.50;1.00;;;;;12.01;69.48;98248.25;5054094;28;45943;-72
2023/03/10 02:22:11;;;;;;;;;1.50;0.50;;;;;12.01;69.27;98235.97;5054145;28;45818;-75
2023/03/10 02:24:51;;;;;;;;;4.75;1.25;;;;;12.02;69.20;98228.91;5054261;28;45679;-74
2023/03/10 02:27:21;;;;;;;;;2.00;0.00;;;;;11.99;68.96;98235.31;5053432;28;45752;-74
2023/03/10 02:30:08;;;;;;;;;2.00;1.50;;;;;12.00;69.23;98234.31;5053893;28;46176;-74
2023/03/10 02:32:38;;;;;;;;;2.00;0.25;;;;;12.00;69.05;98223.81;5053705;28;45705;-74
2023/03/10 02:35:04;;;;;;;;;3.25;1.25;;;;;11.91;68.70;98222.28;5054037;28;45511;-73
2023/03/10 02:37:32;;;;;;;;;1.75;1.00;;;;;12.03;68.62;98220.03;5054081;28;45625;-75
2023/03/10 02:39:58;;;;;;;;;1.25;1.00;;;;;11.99;68.76;98219.56;5053699;28;45805;-73
2023/03/10 02:42:28;;;;;;;;;4.00;2.00;;;;;12.04;68.66;98221.66;5053838;28;45612;-74
2023/03/10 02:44:54;;;;;;;;;5.00;1.00;;;;;12.08;68.52;98217.72;5053833;28;45821;-75
2023/03/10 02:47:19;;;;;;;;;1.00;0.00;;;;;12.10;68.52;98232.28;5053506;28;47375;-73
2023/03/10 02:49:45;;;;;;;;;1.00;1.00;;;;;12.11;68.28;98209.47;5053159;28;46720;-73
2023/03/10 02:52:24;;;;;;;;;2.00;0.75;;;;;12.11;68.18;98205.03;5053650;28;45601;-76
2023/03/10 02:54:49;;;;;;;;;1.75;1.00;;;;;12.12;67.83;98204.03;5053897;28;45607;-74
2023/03/10 02:57:14;;;;;;;;;7.00;2.00;;;;;12.15;68.33;98202.84;5053352;28;46248;-73
2023/03/10 02:59:40;;;;;;;;;0.00;0.00;;;;;12.15;67.92;98211.56;5053329;28;45993;-74
2023/03/10 03:02:05;;;;;;;;;1.75;0.00;;;;;12.12;67.77;98205.84;5053372;28;45568;-74
2023/03/10 03:04:31;;;;;;;;;1.50;0.00;;;;;12.11;67.89;98210.28;5053565;28;45754;-74
2023/03/10 03:06:56;;;;;;;;;0.75;0.00;;;;;12.10;67.54;98208.66;5053480;28;46567;-73
2023/03/10 03:09:21;;;;;;;;;1.25;0.00;;;;;12.09;67.62;98207.00;5052794;28;47201;-74
2023/03/10 03:15:08;;;;;;;;;0.00;0.00;;;;;12.05;67.37;98194.41;5053532;28;45648;-74
2023/03/10 03:17:34;;;;;;;;;1.75;0.00;;;;;12.01;67.52;98187.91;5053354;28;45582;-74
2023/03/10 03:19:59;;;;;;;;;2.00;0.00;;;;;12.01;67.52;98190.53;5051309;28;46099;-74
2023/03/10 03:22:24;;;;;;;;;1.00;0.00;;;;;11.96;67.38;98193.69;5053357;28;45824;-74
2023/03/10 03:24:50;;;;;;;;;0.00;0.00;;;;;11.92;67.82;98189.81;5053094;28;45586;-75
2023/03/10 03:30:38;;;;;;;;;0.00;0.00;;;;;11.74;68.90;98195.34;5052636;28;45671;-74
2023/03/10 03:33:06;;;;;;;;;2.75;0.00;;;;;11.71;69.32;98197.47;5053105;28;45808;-75
2023/03/10 03:35:33;;;;;;;;;3.00;1.00;;;;;11.63;69.35;98202.78;5053531;28;45668;-73
2023/03/10 03:37:59;;;;;;;;;2.00;0.00;;;;;11.59;70.03;98212.81;5055643;28;46915;-73
2023/03/10 03:40:27;;;;;;;;;1.00;0.00;;;;;11.53;70.06;98197.75;5055736;28;46917;-73
2023/03/10 03:42:53;;;;;;;;;2.75;0.75;;;;;11.44;70.12;98198.81;5056157;28;45638;-74
2023/03/10 03:45:22;;;;;;;;;1.00;1.00;;;;;11.43;70.37;98212.91;5055482;28;45844;-75
2023/03/10 03:47:48;;;;;;;;;2.00;1.00;;;;;11.43;70.53;98210.28;5056774;28;45575;-74
2023/03/10 03:50:16;;;;;;;;;2.00;0.25;;;;;11.43;70.52;98199.78;5056074;28;45863;-74
2023/03/10 03:52:42;;;;;;;;;1.75;1.00;;;;;11.46;70.54;98193.38;5056194;28;45524;-74
2023/03/10 03:55:09;;;;;;;;;4.50;1.00;;;;;11.50;70.44;98207.78;5056588;28;45667;-74
2023/03/10 04:01:36;;;;;;;;;2.75;1.75;;;;;11.46;70.99;98196.81;5058867;27;46521;-75
2023/03/10 04:04:02;;;;;;;;;2.25;1.00;;;;;11.53;71.12;98199.56;5056270;28;45651;-73
2023/03/10 04:06:28;;;;;;;;;6.00;2.00;;;;;11.51;71.08;98204.16;5054935;28;45629;-74
2023/03/10 04:08:53;;;;;;;;;2.00;1.00;;;;;11.52;71.09;98200.53;5055769;28;46933;-74
2023/03/10 04:11:19;;;;;;;;;3.00;1.00;;;;;11.52;71.19;98195.31;5055570;28;45710;-74
2023/03/10 04:13:44;;;;;;;;;2.75;1.00;;;;;11.57;71.28;98209.53;5056136;28;45692;-74
2023/03/10 04:16:09;;;;;;;;;1.00;1.00;;;;;11.58;71.45;98211.16;5071556;28;45995;-74
2023/03/10 04:18:35;;;;;;;;;3.25;0.25;;;;;11.59;71.49;98215.44;5056038;28;45549;-74
2023/03/10 04:21:00;;;;;;;;;1.00;1.00;;;;;11.59;71.90;98214.59;5055592;28;45661;-74
2023/03/10 04:23:25;;;;;;;;;1.50;0.00;;;;;11.55;72.02;98205.47;5055832;28;45694;-74
2023/03/10 04:25:51;;;;;;;;;2.50;1.00;;;;;11.56;72.19;98207.88;5037983;28;45567;-74
2023/03/10 04:31:38;;;;;;;;;0.50;0.50;;;;;11.52;72.16;98204.00;5055188;28;46181;-74
2023/03/10 04:34:04;;;;;;;;;1.25;1.00;;;;;11.46;72.30;98190.75;5056022;28;45697;-74
2023/03/10 04:36:30;;;;;;;;;2.00;1.00;;;;;11.43;72.34;98186.69;5055882;28;45922;-74
2023/03/10 04:38:55;;;;;;;;;0.00;0.00;;;;;11.27;72.07;98192.03;5055329;28;46881;-74
2023/03/10 04:41:21;;;;;;;;;1.75;0.25;;;;;11.26;72.11;98200.88;5055142;28;46298;-74
2023/03/10 04:43:47;;;;;;;;;0.00;0.00;;;;;11.23;72.39;98195.97;5055616;28;45733;-74
2023/03/10 04:46:12;;;;;;;;;0.75;0.00;;;;;11.12;72.12;98183.28;5055675;28;45952;-75
2023/03/10 04:48:38;;;;;;;;;0.00;0.00;;;;;11.18;72.46;98190.44;5054616;28;46638;-74
2023/03/10 04:51:07;;;;;;;;;1.75;0.00;;;;;11.16;72.13;98188.00;5054995;28;47220;-73
2023/03/10 04:53:34;;;;;;;;;0.00;0.00;;;;;11.15;71.61;98198.66;5055359;28;45607;-75
2023/03/10 04:56:01;;;;;;;;;2.50;1.00;;;;;11.17;71.67;98207.97;5056506;28;45745;-74
2023/03/10 05:01:50;;;;;;;;;1.50;0.00;;;;;11.07;72.45;98209.97;5060338;27;45738;-73
2023/03/10 05:04:15;;;;;;;;;1.00;0.00;;;;;11.09;72.41;98215.06;5037790;28;45688;-74
2023/03/10 05:06:41;;;;;;;;;1.00;0.00;;;;;11.09;72.22;98215.06;5055240;28;45827;-75
2023/03/10 05:09:06;;;;;;;;;0.50;0.00;;;;;11.07;71.73;98222.25;5055321;28;46986;-75
2023/03/10 05:11:32;;;;;;;;;4.00;0.75;;;;;11.07;71.99;98236.16;5054921;28;46996;-73
2023/03/10 05:17:19;;;;;;;;;0.00;0.00;;;;;10.93;72.08;98229.03;5054806;28;45631;-74
2023/03/10 05:19:45;;;;;;;;;0.00;0.00;;;;;10.87;72.34;98220.06;5054909;28;46403;-73
2023/03/10 05:22:11;;;;;;;;;0.00;0.00;;;;;10.84;72.39;98220.41;5054383;28;47152;-75
2023/03/10 05:24:36;;;;;;;;;0.00;0.00;;;;;10.83;72.00;98224.00;5054885;28;45741;-74
2023/03/10 05:27:02;;;;;;;;;0.00;0.00;;;;;10.81;71.98;98223.34;5054922;28;45593;-73
2023/03/10 05:29:28;;;;;;;;;1.00;0.00;;;;;10.79;72.13;98229.75;5054794;28;46456;-74
2023/03/10 05:31:53;;;;;;;;;0.00;0.00;;;;;10.83;72.00;98231.03;5054474;28;45946;-74
2023/03/10 05:34:19;;;;;;;;;0.00;0.00;;;;;10.77;71.89;98229.09;5054614;28;45631;-73
2023/03/10 05:36:44;;;;;;;;;0.00;0.00;;;;;10.79;72.41;98240.22;5055097;28;45741;-74
2023/03/10 05:39:11;;;;;;;;;0.00;0.00;;;;;10.80;72.41;98233.97;5054643;28;45538;-74
2023/03/10 05:41:37;;;;;;;;;0.00;0.00;;;;;10.77;72.71;98232.53;5054528;28;45924;-74
2023/03/10 05:47:25;;;;;;;;;0.00;0.00;;;;;10.68;73.21;98227.50;5054817;28;45625;-77
2023/03/10 05:49:50;;;;;;;;;0.00;0.00;;;;;10.64;73.58;98224.38;5054528;28;45777;-78
2023/03/10 05:52:16;;;;;;;;;3.00;0.00;;;;;10.60;73.66;98219.66;5054296;28;45542;-74
2023/03/10 05:54:41;;;;;;;;;0.00;0.00;;;;;10.59;73.49;98228.47;5054766;28;45724;-74
2023/03/10 05:57:07;;;;;;;;;0.00;0.00;;;;;10.55;73.55;98222.78;5070218;28;45584;-76
2023/03/10 06:02:54;;;;;;;;;0.00;0.00;;;;;10.50;73.48;98228.50;5061443;28;45774;-74
2023/03/10 06:05:19;;;;;;;;;0.50;0.00;;;;;10.52;73.72;98238.81;5036656;28;45605;-73
2023/03/10 06:07:45;;;;;;;;;0.00;0.00;;;;;10.52;73.65;98241.44;5054588;28;45680;-74
2023/03/10 06:10:10;;;;;;;;;0.00;0.00;;;;;10.52;73.72;98255.34;5054310;28;45616;-75
2023/03/10 06:12:36;;;;;;;;;0.00;0.00;;;;;10.49;74.04;98247.00;5035773;28;46002;-76
2023/03/10 06:15:01;;;;;;;;;0.00;0.00;;;;;10.47;74.46;98256.84;5036019;28;45677;-75
2023/03/10 06:17:26;;;;;;;;;0.50;0.00;;;;;10.45;74.28;98245.72;5053575;28;45825;-74
2023/03/10 06:19:52;;;;;;;;;1.00;0.00;;;;;10.40;74.31;98246.22;5053754;28;47480;-74
2023/03/10 06:22:17;;;;;;;;;0.00;0.00;;;;;10.39;74.64;98264.69;5054035;28;45787;-75
2023/03/10 06:24:44;;;;;;;;;0.00;0.00;;;;;10.34;74.85;98270.41;5053590;28;45643;-74
2023/03/10 06:27:09;;;;;;;;;0.00;0.00;;;;;10.26;75.31;98256.50;5069637;28;45635;-74
2023/03/10 06:32:58;;;;;;;;;0.00;0.00;;;;;10.22;75.39;98278.75;5053840;28;45778;-74
2023/03/10 06:35:23;;;;;;;;;0.00;0.00;;;;;10.21;76.05;98282.34;5053848;28;45698;-75
2023/03/10 06:37:49;;;;;;;;;0.00;0.00;;;;;10.15;76.09;98291.63;5054212;28;45668;-73
2023/03/10 06:40:14;;;;;;;;;0.00;0.00;;;;;10.15;76.39;98301.31;5053366;28;46526;-74
2023/03/10 06:42:41;;;;;;;;;0.00;0.00;;;;;10.08;76.36;98286.25;5053966;28;45686;-76
2023/03/10 06:48:27;;;;;;;;;0.00;0.00;;;;;10.03;77.17;98300.81;5053121;28;45707;-75
2023/03/10 06:50:53;;;;;;;;;0.00;0.00;;;;;10.01;77.08;98310.59;5053197;28;46209;-75
2023/03/10 06:53:20;;;;;;;;;0.00;0.00;;;;;9.99;77.18;98304.72;5053640;28;46064;-74
2023/03/10 06:56:09;;;;;;;;;0.00;0.00;;;;;10.01;77.69;98315.84;5053960;28;45565;-76
2023/03/10 06:58:37;;;;;;;;;0.00;0.00;;;;;10.02;77.94;98336.63;5053269;28;45595;-74
2023/03/10 07:01:04;;;;;;;;;0.00;0.00;;;;;10.01;77.98;98326.31;5053594;28;45697;-74
2023/03/10 07:03:29;;;;;;;;;0.00;0.00;;;;;9.95;78.61;98340.84;5053175;28;48279;-75
2023/03/10 07:05:57;;;;;;;;;0.00;0.00;;;;;9.95;78.42;98340.84;5053621;28;45653;-74
2023/03/10 07:08:23;;;;;;;;;0.00;0.00;;;;;9.94;78.24;98351.44;5053285;28;45556;-75
2023/03/10 07:10:48;;;;;;;;;0.00;0.00;;;;;9.94;78.46;98360.13;5053356;28;46494;-75
2023/03/10 07:13:16;;;;;;;;;0.00;0.00;;;;;9.95;78.84;98376.63;5056110;28;45667;-75
2023/03/10 07:19:02;;;;;;;;;0.00;0.00;;;;;9.99;79.12;98391.84;5056945;28;45645;-75
2023/03/10 07:21:28;;;;;;;;;0.00;0.00;;;;;9.86;79.11;98367.97;5056936;28;45441;-75
2023/03/10 07:23:53;;;;;;;;;0.00;0.00;;;;;9.95;79.42;98400.19;5056563;28;46850;-74
2023/03/10 07:26:19;;;;;;;;;0.00;0.00;;;;;9.95;79.60;98408.84;5056666;28;45517;-74
2023/03/10 07:28:44;;;;;;;;;0.00;0.00;;;;;9.83;79.82;98407.50;5056626;28;45515;-75
2023/03/10 07:31:12;;;;;;;;;0.00;0.00;;;;;9.96;80.24;98434.03;5056171;28;47352;-76
2023/03/10 07:33:37;;;;;;;;;0.00;0.00;;;;;9.95;80.05;98434.19;5056411;28;47009;-76
2023/03/10 07:36:08;;;;;;;;;0.00;0.00;;;;;9.95;79.96;98428.94;5056795;28;45713;-75
2023/03/10 07:38:34;;;;;;;;;0.00;0.00;;;;;9.97;80.12;98437.47;5038459;28;45820;-75
2023/03/10 07:41:00;;;;;;;;;0.00;0.00;;;;;9.93;80.13;98431.72;5056846;28;45484;-76
2023/03/10 07:43:25;;;;;;;;;0.00;0.00;;;;;9.98;80.33;98480.97;5056781;28;45534;-75
2023/03/10 07:49:12;;;;;;;;;0.00;0.00;;;;;9.98;80.47;98478.34;5056507;28;45508;-75
2023/03/10 07:51:37;;;;;;;;;0.00;0.00;;;;;9.95;80.50;98518.69;5056631;28;46456;-76
2023/03/10 07:54:03;;;;;;;;;0.00;0.00;;;;;9.87;79.35;98520.47;5055805;28;46173;-76
2023/03/10 07:56:28;;;;;;;;;0.00;0.00;;;;;9.87;79.35;98531.75;5056614;28;45634;-74
2023/03/10 07:58:54;;;;;;;;;0.00;0.00;;;;;9.88;79.58;98543.84;5056798;28;45665;-76
2023/03/10 08:04:41;;;;;;;;;0.00;0.00;;;;;9.88;78.62;98528.13;5063881;28;45771;-76
2023/03/10 08:07:07;;;;;;;;;0.00;0.00;;;;;9.89;79.03;98527.16;5056275;28;45606;-76
2023/03/10 08:09:32;;;;;;;;;0.00;0.00;;;;;9.83;78.80;98577.47;5056516;28;45770;-75
2023/03/10 08:11:58;;;;;;;;;0.00;0.00;;;;;9.83;78.44;98587.13;5055970;28;46419;-76
2023/03/10 08:14:26;;;;;;;;;1.00;0.00;;;;;9.83;79.13;98606.25;5055913;28;47318;-76
2023/03/10 08:16:52;;;;;;;;;0.00;0.00;;;;;9.92;79.57;98613.19;5056083;28;45574;-77
2023/03/10 08:19:17;;;;;;;;;0.00;0.00;;;;;9.89;77.02;98621.31;5056459;28;45646;-75
2023/03/10 08:21:43;;;;;;;;;0.00;0.00;;;;;10.07;77.76;98605.59;5056312;28;45606;-75
2023/03/10 08:24:09;;;;;;;;;0.00;0.00;;;;;10.14;77.98;98595.31;5055194;28;45787;-76
2023/03/10 08:26:35;;;;;;;;;0.00;0.00;;;;;10.18;77.72;98596.69;5056102;28;45547;-75
2023/03/10 08:29:00;;;;;;;;;0.00;0.00;;;;;10.17;77.53;98632.47;5055970;28;45776;-76
2023/03/10 08:34:47;;;;;;;;;0.00;0.00;;;;;10.06;77.53;98667.53;5055583;28;45588;-75
2023/03/10 08:37:13;;;;;;;;;0.00;0.00;;;;;9.98;78.51;98653.59;5055809;28;45623;-75
2023/03/10 08:39:38;;;;;;;;;0.00;0.00;;;;;9.82;79.10;98692.72;5056036;28;45731;-74
2023/03/10 08:42:04;;;;;;;;;0.00;0.00;;;;;9.76;78.92;98683.69;5055636;28;45711;-76
2023/03/10 08:44:29;;;;;;;;;0.00;0.00;;;;;9.66;77.90;98685.56;5037888;28;46559;-76
2023/03/10 08:50:16;;;;;;;;;1.00;0.00;;;;;9.69;77.54;98714.84;5055714;28;45607;-75
2023/03/10 08:52:42;;;;;;;;;0.00;0.00;;;;;9.73;78.43;98678.72;5055739;28;47123;-76
2023/03/10 08:55:07;;;;;;;;;0.00;0.00;;;;;9.78;77.04;98705.25;5055747;28;46431;-75
2023/03/10 08:57:33;;;;;;;;;0.25;0.00;;;;;9.80;77.21;98682.41;5037432;28;46307;-75
2023/03/10 08:59:58;;;;;;;;;0.00;0.00;;;;;9.86;76.95;98718.41;5055747;28;45720;-76
2023/03/10 09:02:25;;;;;;;;;0.75;0.00;;;;;9.89;77.24;98743.44;5055644;28;47398;-75
2023/03/10 09:04:52;;;;;;;;;0.00;0.00;;;;;9.88;76.42;98747.03;5055982;28;46487;-77
2023/03/10 09:07:17;;;;;;;;;0.00;0.00;;;;;9.87;75.18;98764.53;5055816;28;45531;-76
2023/03/10 09:09:43;;;;;;;;;0.00;0.00;;;;;9.88;76.52;98729.53;5055400;28;45791;-77
2023/03/10 09:12:09;;;;;;;;;0.00;0.00;;;;;9.80;75.68;98729.47;5055246;28;46343;-74
2023/03/10 09:14:36;;;;;;;;;0.00;0.00;;;;;9.89;77.13;98764.34;5055378;28;45919;-76
2023/03/10 09:20:24;;;;;;;;;0.50;0.00;;;;;9.80;77.03;98812.34;5055021;28;45605;-75
2023/03/10 09:22:54;;;;;;;;;0.00;0.00;;;;;9.80;76.51;98780.94;5054572;28;45579;-76
2023/03/10 09:25:20;;;;;;;;;0.00;0.00;;;;;9.71;76.11;98806.22;5055210;28;46075;-76
2023/03/10 09:27:45;;;;;;;;;0.00;0.00;;;;;9.75;75.90;98799.72;5054948;28;45755;-76
2023/03/10 09:30:11;;;;;;;;;0.00;0.00;;;;;9.67;76.20;98810.06;5054599;28;45677;-74
2023/03/10 09:32:37;;;;;;;;;0.00;0.00;;;;;9.71;75.70;98828.91;5054558;28;46589;-76
2023/03/10 09:35:02;;;;;;;;;0.00;0.00;;;;;9.64;74.34;98862.66;5054510;28;46098;-75
2023/03/10 09:37:28;;;;;;;;;0.00;0.00;;;;;9.64;75.78;98852.22;5070396;28;45683;-75
2023/03/10 09:39:53;;;;;;;;;0.00;0.00;;;;;9.59;74.86;98906.72;5054657;28;45461;-75
2023/03/10 09:42:32;;;;;;;;;0.00;0.00;;;;;9.55;75.36;98874.00;5054280;28;47567;-75
2023/03/10 09:45:04;;;;;;;;;0.00;0.00;;;;;9.50;75.94;98937.16;5054739;28;47011;-77
2023/03/10 09:50:55;;;;;;;;;1.00;0.00;;;;;9.48;74.39;98936.50;5054880;28;45594;-76
2023/03/10 09:53:42;;;;;;;;;0.00;0.00;;;;;9.51;74.64;98893.53;5053618;28;47722;-76
2023/03/10 09:56:15;;;;;;;;;1.00;0.00;;;;;9.51;73.54;98886.53;5036422;28;47108;-76
2023/03/10 09:58:42;;;;;;;;;0.00;0.00;;;;;9.56;72.74;98949.66;5054318;28;45555;-77
2023/03/10 10:01:16;;;;;;;;;0.00;0.00;;;;;9.59;72.15;98923.25;5036338;28;45547;-75
2023/03/10 10:03:49;;;;;;;;;1.00;0.00;;;;;9.53;73.09;98921.19;5054414;28;46653;-75
2023/03/10 10:06:21;;;;;;;;;1.00;0.00;;;;;9.53;72.98;98933.44;5054737;28;45979;-75
2023/03/10 10:08:53;;;;;;;;;0.00;0.00;;;;;9.55;73.17;98976.78;5054287;28;45590;-75
2023/03/10 10:11:19;;;;;;;;;0.00;0.00;;;;;9.51;71.70;98957.09;5054602;28;45522;-77
2023/03/10 10:13:45;;;;;;;;;0.00;0.00;;;;;9.59;72.91;98999.06;5054675;28;47843;-75
2023/03/10 10:16:25;;;;;;;;;0.00;0.00;;;;;9.59;70.53;98983.38;5054171;28;46488;-74
2023/03/10 10:19:02;;;;;;;;;0.00;0.00;;;;;9.59;70.39;99037.44;5054087;28;45574;-75
2023/03/10 10:21:39;;;;;;;;;0.25;0.25;;;;;9.58;70.69;98991.34;5054264;28;45674;-75
2023/03/10 10:24:05;;;;;;;;;0.00;0.00;;;;;9.62;70.13;99005.78;5054361;28;45590;-76
2023/03/10 10:26:30;;;;;;;;;3.00;0.25;;;;;9.61;70.39;99030.25;5054408;28;46860;-75
2023/03/10 10:29:05;;;;;;;;;1.50;0.25;;;;;9.67;70.44;99043.59;5054547;28;45685;-75
2023/03/10 10:31:32;;;;;;;;;1.00;0.00;;;;;9.63;69.30;99015.28;5054803;28;45587;-74
2023/03/10 10:34:02;;;;;;;;;0.75;0.00;;;;;9.67;69.59;99033.16;5053940;28;46830;-75
2023/03/10 10:36:50;;;;;;;;;1.00;0.00;;;;;9.69;67.82;99014.72;5054241;28;46344;-74
2023/03/10 10:39:25;;;;;;;;;1.25;0.25;;;;;9.66;67.49;99022.84;5053517;28;45708;-75
2023/03/10 10:41:50;;;;;;;;;0.50;0.00;;;;;9.60;66.80;99084.38;5054222;28;45763;-75
2023/03/10 10:44:17;;;;;;;;;2.00;0.00;;;;;9.64;66.78;99028.22;5054271;28;45642;-75
2023/03/10 10:46:56;;;;;;;;;0.00;0.00;;;;;9.67;65.59;99051.44;5052717;28;46579;-74
2023/03/10 10:49:28;;;;;;;;;0.75;0.00;;;;;9.67;65.75;99056.69;5035648;28;45770;-76
2023/03/10 10:52:17;;;;;;;;;1.25;0.00;;;;;9.68;65.51;99071.41;5053564;28;45792;-76
2023/03/10 10:54:43;;;;;;;;;0.00;0.00;;;;;9.75;64.59;99104.84;5053567;28;45574;-75
2023/03/10 10:57:20;;;;;;;;;1.00;0.00;;;;;9.76;63.96;99090.81;5053508;28;46086;-75
2023/03/10 10:59:46;;;;;;;;;1.00;0.00;;;;;9.79;63.48;99134.97;5053808;28;45737;-75
2023/03/10 11:02:32;;;;;;;;;0.50;0.00;;;;;9.79;63.11;99119.28;5053441;28;45829;-76
2023/03/10 11:05:20;;;;;;;;;1.00;0.00;;;;;9.79;62.91;99099.19;5053456;28;47581;-75
2023/03/10 11:07:46;;;;;;;;;0.00;0.00;;;;;9.78;63.33;99122.84;5051961;28;48293;-76
2023/03/10 11:10:16;;;;;;;;;0.00;0.00;;;;;9.87;64.02;99142.97;5053555;28;45564;-74
2023/03/10 11:13:15;;;;;;;;;0.50;0.00;;;;;9.82;62.99;99132.91;5053499;28;45810;-73
2023/03/10 11:15:56;;;;;;;;;1.75;1.00;;;;;9.79;62.90;99133.19;5053261;28;47544;-75
2023/03/10 11:18:30;;;;;;;;;0.00;0.00;;;;;9.82;62.54;99150.41;5051673;28;47430;-73
2023/03/10 11:21:22;;;;;;;;;1.00;0.25;;;;;9.79;62.20;99185.50;5053456;28;45637;-74
2023/03/10 11:24:24;;;;;;;;;0.50;0.25;;;;;9.78;60.91;99181.22;5053384;28;45769;-74
2023/03/10 11:27:23;;;;;;;;;1.00;0.50;;;;;9.65;61.42;99165.00;5053411;28;45559;-74
2023/03/10 11:30:04;;;;;;;;;2.00;0.50;;;;;9.74;61.01;99158.09;5053189;28;45887;-74
2023/03/10 11:36:09;;;;;;;;;0.75;0.25;;;;;9.85;60.36;99176.25;5053310;28;45611;-75
2023/03/10 11:38:47;;;;;;;;;1.50;0.75;;;;;9.86;59.45;99170.91;5052998;28;45660;-75
2023/03/10 11:41:22;;;;;;;;;0.75;0.00;;;;;9.84;60.38;99180.66;5052861;28;47026;-76
2023/03/10 11:44:15;;;;;;;;;0.00;0.00;;;;;9.87;59.93;99201.34;5051708;28;45753;-74
2023/03/10 11:47:00;;;;;;;;;0.50;0.00;;;;;9.84;59.80;99198.16;5053226;28;45864;-76
2023/03/10 11:49:34;;;;;;;;;0.00;0.00;;;;;9.92;58.94;99221.84;5053059;28;46326;-75
2023/03/10 11:52:03;;;;;;;;;5.00;0.50;;;;;9.94;58.91;99257.34;5052792;28;46503;-74
2023/03/10 11:55:04;;;;;;;;;2.00;1.75;;;;;9.94;58.65;99239.03;5034974;28;45677;-74
2023/03/10 11:57:38;;;;;;;;;1.00;0.25;;;;;9.91;57.63;99243.72;5053392;28;45710;-74
2023/03/10 12:00:17;;;;;;;;;0.00;0.00;;;;;9.90;58.39;99240.28;5054951;28;46574;-74
2023/03/10 12:03:15;;;;;;;;;2.00;1.00;;;;;9.96;58.26;99229.25;5056091;28;47347;-75
2023/03/10 12:06:11;;;;;;;;;1.25;0.00;;;;;10.03;58.68;99226.91;4993749;28;45896;-76
2023/03/10 12:08:38;;;;;;;;;1.50;1.00;;;;;10.07;57.21;99252.66;4994717;28;45936;-75
2023/03/10 12:11:10;;;;;;;;;0.75;0.75;;;;;10.03;57.62;99219.06;4994196;28;46662;-75
2023/03/10 12:13:43;;;;;;;;;2.00;0.00;;;;;10.11;57.03;99245.34;4994451;28;46392;-75
2023/03/10 12:16:14;;;;;;;;;2.50;0.50;;;;;10.04;57.26;99226.75;4994392;28;45810;-75
2023/03/10 12:18:40;;;;;;;;;2.75;1.00;;;;;10.05;56.44;99244.13;4994187;28;45930;-76
2023/03/10 12:21:17;;;;;;;;;1.00;0.00;;;;;10.08;56.40;99277.88;4994116;28;46703;-76
2023/03/10 12:23:48;;;;;;;;;0.00;0.00;;;;;10.07;56.29;99260.50;4993948;28;46986;-74
2023/03/10 12:26:14;;;;;;;;;1.00;0.00;;;;;10.06;56.01;99302.50;4993823;28;45716;-75
2023/03/10 12:28:40;;;;;;;;;0.75;0.00;;;;;10.03;56.63;99297.56;4993940;28;45672;-73
2023/03/10 12:31:11;;;;;;;;;2.00;0.00;;;;;10.04;56.06;99267.81;4993667;28;46470;-75
2023/03/10 12:33:42;;;;;;;;;0.00;0.00;;;;;10.11;56.99;99266.28;4993706;28;46163;-76
2023/03/10 12:36:30;;;;;;;;;0.00;0.00;;;;;10.13;56.20;99363.81;4977307;28;45765;-74
2023/03/10 12:39:20;;;;;;;;;1.00;1.00;;;;;10.10;56.22;99338.72;4993934;28;45789;-75
2023/03/10 12:41:51;;;;;;;;;2.00;0.75;;;;;9.96;57.52;99333.09;5008868;28;46546;-74
2023/03/10 12:44:51;;;;;;;;;2.50;1.00;;;;;9.86;58.21;99363.63;5075736;28;46513;-74
2023/03/10 12:50:53;;;;;;;;;1.25;0.00;;;;;9.69;57.68;99354.66;5075765;28;45608;-73
2023/03/10 12:53:30;;;;;;;;;1.50;1.00;;;;;9.67;58.47;99370.47;5075550;28;47263;-74
2023/03/10 12:56:10;;;;;;;;;0.00;0.00;;;;;9.57;60.49;99397.53;5074396;28;48533;-75
2023/03/10 12:58:37;;;;;;;;;1.00;0.00;;;;;9.48;60.37;99387.91;5075680;28;45698;-74
2023/03/10 13:01:06;;;;;;;;;0.00;0.00;;;;;9.44;62.11;99387.34;5075553;28;45813;-75
2023/03/10 13:07:19;;;;;;;;;0.25;0.00;;;;;9.32;61.84;99398.84;5059522;28;46262;-74
2023/03/10 13:09:47;;;;;;;;;0.25;0.00;;;;;9.26;60.94;99405.41;5054318;28;45759;-75
2023/03/10 13:12:24;;;;;;;;;0.00;0.00;;;;;9.32;62.21;99479.03;5055340;28;45468;-75